Longueuil, Canada
Current Conditions -  °F | °C
As of 6:00 PM on Wednesday 26 Nov 2014 (Local Time) from CYHU Reporting Station
Overcast Overcast  
Wind Chill: 22°   Ceiling: 10000
Heat Index: 30°   Visibility: 9mi
Dew Point: 23°   Wind: 9mph
Humidity: 75%   Direction: 30°NNE
Pressure: 30.14"   Gusts: NA
Location:  45.54°N, 73.49°W
Report Text: CYHU 262300Z AUTO 03008KT 9SM OVC100 M01/M05 A3014 RMK SLP209
Loading
Personal Weather Stations






























Interactive Weather Map New forecast layout! Learn more

10-Day Weather Forecast

Advertisements
Track Severe Weather on mobile